Station Historical Data
Daily Summary for July 09, 2012 Units:  English    Metric   Both
« Previous Day
Next Day »
Daily Weekly Monthly Yearly Custom
  High: Low: Average:
Temperature: 88.4 °F 72.0 °F 78.2 °F
Dew Point: 74.6 °F 69.8 °F 72 °F
Humidity: 93% 56% 82%
Wind Speed: 10.0mph 0.0mph 2.7mph
Wind Gust: 12.0mph - -
Wind- - SSW
Pressure: 29.95 in 29.85 in -
Precipitation: 0.01 in    
Historical Graphs
 
 
Tabular Data for July 09, 2012
Time Temperature Dew Point Pressure Wind Wind Speed Wind Gust Humidity Rainfall Rate (Hourly) Conditions
00:00 75.5 °F 72.7 °F 29.92 in WSW 1.0 mph 1.0 mph 91% 0.00 in
00:05 75.5 °F 72.7 °F 29.92 in SW 2.0 mph 3.0 mph 91% 0.00 in
00:10 75.6 °F 72.8 °F 29.92 in SW 2.0 mph 3.0 mph 91% 0.00 in
00:15 75.6 °F 72.8 °F 29.92 in SW 2.0 mph 4.0 mph 91% 0.00 in
00:20 75.4 °F 72.6 °F 29.92 in SSW 4.0 mph 4.0 mph 91% 0.00 in
00:25 75.3 °F 72.5 °F 29.92 in SW 4.0 mph 5.0 mph 91% 0.00 in
00:30 75.3 °F 72.5 °F 29.92 in SW 3.0 mph 3.0 mph 91% 0.00 in
00:35 75.3 °F 72.5 °F 29.92 in WSW 1.0 mph 3.0 mph 91% 0.00 in
00:40 75.2 °F 72.4 °F 29.92 in WSW 1.0 mph 3.0 mph 91% 0.00 in
00:45 75.2 °F 72.4 °F 29.92 in SW 2.0 mph 3.0 mph 91% 0.00 in
00:50 75.1 °F 72.3 °F 29.93 in SW 1.0 mph 1.0 mph 91% 0.00 in
00:55 75.1 °F 72.6 °F 29.93 in West 1.0 mph 3.0 mph 92% 0.00 in
01:00 75.1 °F 72.6 °F 29.92 in WSW 1.0 mph 2.0 mph 92% 0.00 in
01:05 75.2 °F 72.7 °F 29.92 in Calm   1.0 mph 92% 0.00 in
01:10 75.3 °F 72.8 °F 29.92 in WSW 1.0 mph 3.0 mph 92% 0.00 in
01:15 75.4 °F 72.9 °F 29.93 in WSW 1.0 mph 3.0 mph 92% 0.00 in
01:20 75.4 °F 72.6 °F 29.93 in WNW 2.0 mph 2.0 mph 91% 0.00 in
01:26 75.5 °F 72.7 °F 29.93 in West 2.0 mph 2.0 mph 91% 0.00 in
01:31 75.7 °F 72.9 °F 29.92 in WSW 3.0 mph 5.0 mph 91% 0.00 in
01:36 75.7 °F 72.9 °F 29.92 in WSW 3.0 mph 3.0 mph 91% 0.00 in
01:41 75.8 °F 73.0 °F 29.92 in West 1.0 mph 2.0 mph 91% 0.00 in
01:46 75.7 °F 72.9 °F 29.93 in Calm   2.0 mph 91% 0.00 in
01:51 75.7 °F 72.9 °F 29.93 in Calm     91% 0.00 in
01:56 75.6 °F 72.8 °F 29.93 in Calm   1.0 mph 91% 0.00 in
02:01 75.5 °F 72.7 °F 29.93 in Calm   1.0 mph 91% 0.00 in
02:06 75.5 °F 72.7 °F 29.93 in WSW 1.0 mph 1.0 mph 91% 0.00 in
02:11 75.4 °F 72.6 °F 29.93 in WSW 1.0 mph 1.0 mph 91% 0.00 in
02:16 75.4 °F 72.6 °F 29.93 in West 1.0 mph 2.0 mph 91% 0.00 in
02:21 75.3 °F 72.5 °F 29.93 in WNW 2.0 mph 2.0 mph 91% 0.00 in
02:26 75.3 °F 72.5 °F 29.92 in NW 1.0 mph 3.0 mph 91% 0.00 in
02:31 75.3 °F 72.5 °F 29.92 in Calm   1.0 mph 91% 0.00 in
02:36 75.1 °F 72.3 °F 29.92 in Calm   1.0 mph 91% 0.00 in
02:41 74.9 °F 72.1 °F 29.92 in NW 1.0 mph 1.0 mph 91% 0.00 in
02:46 74.9 °F 72.1 °F 29.92 in WNW 2.0 mph 2.0 mph 91% 0.00 in
02:52 74.8 °F 72.0 °F 29.92 in Calm   2.0 mph 91% 0.00 in
02:57 74.7 °F 71.9 °F 29.92 in Calm   1.0 mph 91% 0.00 in
03:02 74.7 °F 71.9 °F 29.92 in Calm   1.0 mph 91% 0.00 in
03:07 74.6 °F 71.8 °F 29.92 in Calm     91% 0.00 in
03:12 74.3 °F 71.8 °F 29.92 in Calm   1.0 mph 92% 0.00 in
03:17 74.1 °F 71.6 °F 29.92 in Calm     92% 0.00 in
03:22 73.9 °F 71.4 °F 29.91 in WNW 1.0 mph 1.0 mph 92% 0.00 in
03:27 73.7 °F 71.2 °F 29.91 in Calm   1.0 mph 92% 0.00 in
03:32 73.6 °F 71.1 °F 29.91 in Calm     92% 0.00 in
03:37 73.3 °F 70.8 °F 29.90 in WNW 1.0 mph 1.0 mph 92% 0.00 in
03:42 73.0 °F 70.5 °F 29.90 in SSW 1.0 mph 1.0 mph 92% 0.00 in
03:47 72.9 °F 70.4 °F 29.90 in Calm   1.0 mph 92% 0.00 in
03:52 72.9 °F 70.4 °F 29.90 in SSE 1.0 mph 1.0 mph 92% 0.00 in
03:57 72.9 °F 70.4 °F 29.90 in SSE 1.0 mph 2.0 mph 92% 0.00 in
04:02 72.7 °F 70.2 °F 29.90 in SSW 1.0 mph 1.0 mph 92% 0.00 in
04:07 72.7 °F 70.2 °F 29.90 in South 1.0 mph 2.0 mph 92% 0.00 in
04:12 72.5 °F 70.1 °F 29.90 in SSW 1.0 mph 1.0 mph 92% 0.00 in
04:17 72.3 °F 70.2 °F 29.90 in WSW 1.0 mph 1.0 mph 93% 0.00 in
04:22 72.4 °F 70.3 °F 29.90 in Calm   1.0 mph 93% 0.00 in
04:27 72.4 °F 70.3 °F 29.90 in Calm   1.0 mph 93% 0.00 in
04:32 72.3 °F 70.2 °F 29.90 in SSE 1.0 mph 1.0 mph 93% 0.00 in
04:37 72.3 °F 70.2 °F 29.89 in SE 2.0 mph 2.0 mph 93% 0.00 in
04:42 72.3 °F 70.2 °F 29.89 in Calm   2.0 mph 93% 0.00 in
04:47 72.3 °F 70.2 °F 29.89 in Calm     93% 0.00 in
04:52 72.2 °F 70.1 °F 29.90 in Calm     93% 0.00 in
04:57 72.2 °F 70.1 °F 29.90 in SSE 2.0 mph 3.0 mph 93% 0.00 in
05:02 72.3 °F 70.2 °F 29.89 in SSE 2.0 mph 3.0 mph 93% 0.00 in
05:07 72.1 °F 70.0 °F 29.90 in SSE 3.0 mph 3.0 mph 93% 0.00 in
05:12 72.2 °F 70.1 °F 29.89 in South 1.0 mph 2.0 mph 93% 0.00 in
05:17 72.2 °F 70.1 °F 29.89 in SSW 1.0 mph 2.0 mph 93% 0.00 in
05:22 72.1 °F 70.0 °F 29.89 in Calm   2.0 mph 93% 0.00 in
05:27 72.0 °F 69.9 °F 29.89 in Calm   2.0 mph 93% 0.00 in
05:32 72.1 °F 70.0 °F 29.89 in Calm   1.0 mph 93% 0.00 in
05:37 72.2 °F 70.1 °F 29.90 in SSE 2.0 mph 4.0 mph 93% 0.00 in
05:42 72.2 °F 70.1 °F 29.89 in SSE 3.0 mph 4.0 mph 93% 0.00 in
05:47 72.3 °F 70.2 °F 29.89 in SSW 1.0 mph 4.0 mph 93% 0.00 in
05:52 72.3 °F 70.2 °F 29.89 in South 2.0 mph 4.0 mph 93% 0.00 in
05:57 72.3 °F 70.2 °F 29.89 in South 4.0 mph 4.0 mph 93% 0.00 in
06:02 72.4 °F 70.3 °F 29.89 in SSW 1.0 mph 5.0 mph 93% 0.00 in
06:07 72.4 °F 70.3 °F 29.89 in South 2.0 mph 4.0 mph 93% 0.00 in
06:12 72.4 °F 70.3 °F 29.90 in South 1.0 mph 4.0 mph 93% 0.00 in
06:17 72.4 °F 70.3 °F 29.90 in SSE 2.0 mph 5.0 mph 93% 0.00 in
06:23 72.4 °F 70.3 °F 29.90 in SW 2.0 mph 4.0 mph 93% 0.00 in
06:28 72.4 °F 70.3 °F 29.90 in SSW 3.0 mph 3.0 mph 93% 0.00 in
06:33 72.4 °F 70.3 °F 29.90 in SW 2.0 mph 4.0 mph 93% 0.00 in
06:38 72.4 °F 70.3 °F 29.90 in SW 2.0 mph 6.0 mph 93% 0.00 in
06:43 72.4 °F 70.3 °F 29.91 in South 3.0 mph 6.0 mph 93% 0.00 in
06:48 72.4 °F 70.3 °F 29.91 in SSW 2.0 mph 6.0 mph 93% 0.00 in
06:53 72.5 °F 70.4 °F 29.91 in South 3.0 mph 6.0 mph 93% 0.00 in
06:58 72.6 °F 70.5 °F 29.91 in SW 5.0 mph 5.0 mph 93% 0.00 in
07:03 72.7 °F 70.6 °F 29.91 in WSW 4.0 mph 8.0 mph 93% 0.00 in
07:08 72.7 °F 70.6 °F 29.91 in SW 6.0 mph 8.0 mph 93% 0.00 in
07:13 72.8 °F 70.7 °F 29.92 in SW 7.0 mph 10.0 mph 93% 0.00 in
07:18 72.8 °F 70.7 °F 29.92 in SW 7.0 mph 8.0 mph 93% 0.00 in
07:23 72.8 °F 70.7 °F 29.92 in SW 4.0 mph 7.0 mph 93% 0.00 in
07:28 72.8 °F 70.7 °F 29.92 in SSW 3.0 mph 7.0 mph 93% 0.00 in
07:33 72.8 °F 70.7 °F 29.92 in SW 6.0 mph 7.0 mph 93% 0.00 in
07:38 72.8 °F 70.7 °F 29.92 in SW 4.0 mph 6.0 mph 93% 0.00 in
07:43 72.9 °F 70.8 °F 29.92 in SW 4.0 mph 7.0 mph 93% 0.00 in
07:48 73.1 °F 71.0 °F 29.92 in SW 4.0 mph 5.0 mph 93% 0.00 in
07:53 73.2 °F 71.1 °F 29.92 in SSW 4.0 mph 8.0 mph 93% 0.00 in
07:58 73.3 °F 71.2 °F 29.92 in SW 6.0 mph 7.0 mph 93% 0.00 in
08:03 73.6 °F 71.5 °F 29.92 in SW 6.0 mph 6.0 mph 93% 0.00 in
08:08 73.7 °F 71.2 °F 29.92 in SSE 2.0 mph 7.0 mph 92% 0.00 in
08:13 74.0 °F 71.5 °F 29.92 in SW 7.0 mph 7.0 mph 92% 0.00 in
08:18 74.2 °F 71.7 °F 29.92 in SW 7.0 mph 8.0 mph 92% 0.00 in
08:23 74.4 °F 71.9 °F 29.92 in WSW 4.0 mph 6.0 mph 92% 0.00 in
08:28 74.8 °F 72.3 °F 29.93 in WNW 2.0 mph 5.0 mph 92% 0.00 in
08:33 75.0 °F 72.2 °F 29.93 in SW 4.0 mph 5.0 mph 91% 0.00 in
08:38 75.3 °F 72.5 °F 29.93 in SW 4.0 mph 7.0 mph 91% 0.00 in
08:43 75.7 °F 72.6 °F 29.93 in SW 3.0 mph 7.0 mph 90% 0.00 in
08:48 76.1 °F 72.6 °F 29.93 in SW 7.0 mph 8.0 mph 89% 0.00 in
08:53 76.5 °F 72.7 °F 29.93 in SW 6.0 mph 7.0 mph 88% 0.00 in
08:58 77.0 °F 73.2 °F 29.93 in SSW 4.0 mph 5.0 mph 88% 0.00 in
09:03 77.3 °F 72.8 °F 29.93 in SW 5.0 mph 9.0 mph 86% 0.00 in
09:08 77.7 °F 72.8 °F 29.93 in WSW 6.0 mph 6.0 mph 85% 0.00 in
09:13 77.9 °F 73.0 °F 29.93 in West 3.0 mph 8.0 mph 85% 0.00 in
09:18 78.2 °F 73.0 °F 29.94 in West 5.0 mph 8.0 mph 84% 0.00 in
09:23 78.3 °F 73.4 °F 29.94 in WSW 3.0 mph 6.0 mph 85% 0.00 in
09:28 78.5 °F 72.9 °F 29.94 in West 4.0 mph 10.0 mph 83% 0.00 in
09:33 78.7 °F 73.1 °F 29.94 in West 4.0 mph 8.0 mph 83% 0.00 in
09:38 78.8 °F 73.6 °F 29.94 in WNW 4.0 mph 7.0 mph 84% 0.00 in
09:43 79.2 °F 73.6 °F 29.94 in WSW 6.0 mph 6.0 mph 83% 0.00 in
09:48 79.2 °F 73.2 °F 29.94 in SW 5.0 mph 8.0 mph 82% 0.00 in
09:53 79.1 °F 73.5 °F 29.94 in WSW 6.0 mph 8.0 mph 83% 0.00 in
09:58 79.0 °F 73.4 °F 29.94 in NW 2.0 mph 7.0 mph 83% 0.00 in
10:03 78.7 °F 73.1 °F 29.94 in WSW 4.0 mph 9.0 mph 83% 0.00 in
10:08 79.0 °F 73.4 °F 29.94 in WSW 5.0 mph 7.0 mph 83% 0.00 in
10:13 79.0 °F 73.0 °F 29.94 in WSW 2.0 mph 9.0 mph 82% 0.00 in
10:18 79.1 °F 73.5 °F 29.94 in SW 5.0 mph 8.0 mph 83% 0.00 in
10:23 79.1 °F 73.1 °F 29.94 in West 2.0 mph 6.0 mph 82% 0.00 in
10:28 79.2 °F 73.6 °F 29.94 in NW 2.0 mph 4.0 mph 83% 0.00 in
10:34 79.5 °F 73.2 °F 29.94 in WNW 4.0 mph 4.0 mph 81% 0.00 in
10:39 79.2 °F 72.9 °F 29.94 in West 2.0 mph 6.0 mph 81% 0.00 in
10:44 79.7 °F 73.4 °F 29.94 in NNW 3.0 mph 5.0 mph 81% 0.00 in
10:49 79.8 °F 73.1 °F 29.94 in NW 6.0 mph 7.0 mph 80% 0.00 in
10:54 79.6 °F 72.9 °F 29.94 in NW 5.0 mph 8.0 mph 80% 0.00 in
10:59 79.1 °F 73.1 °F 29.94 in WNW 5.0 mph 7.0 mph 82% 0.00 in
11:04 78.8 °F 72.8 °F 29.94 in NW 6.0 mph 8.0 mph 82% 0.00 in
11:09 78.5 °F 72.6 °F 29.95 in North 5.0 mph 8.0 mph 82% 0.00 in
11:14 79.2 °F 73.6 °F 29.95 in NW 4.0 mph 6.0 mph 83% 0.00 in
11:19 79.5 °F 73.2 °F 29.95 in WNW 7.0 mph 9.0 mph 81% 0.00 in
11:24 79.7 °F 73.0 °F 29.94 in North 7.0 mph 7.0 mph 80% 0.00 in
11:29 79.8 °F 73.1 °F 29.95 in WNW 3.0 mph 5.0 mph 80% 0.00 in
11:34 79.8 °F 73.1 °F 29.95 in WNW 6.0 mph 9.0 mph 80% 0.00 in
11:39 79.5 °F 72.8 °F 29.94 in NW 2.0 mph 6.0 mph 80% 0.00 in
11:44 80.0 °F 73.3 °F 29.95 in NW 1.0 mph 6.0 mph 80% 0.00 in
11:49 81.2 °F 72.9 °F 29.94 in WNW 6.0 mph 9.0 mph 76% 0.00 in
11:54 81.9 °F 74.0 °F 29.94 in NNE 1.0 mph 6.0 mph 77% 0.00 in
11:59 82.8 °F 72.9 °F 29.94 in WSW 4.0 mph 5.0 mph 72% 0.00 in
12:04 83.4 °F 73.4 °F 29.94 in NNW 3.0 mph 4.0 mph 72% 0.00 in
12:09 83.7 °F 73.7 °F 29.94 in WNW 3.0 mph 4.0 mph 72% 0.00 in
12:14 83.3 °F 72.9 °F 29.94 in West 6.0 mph 7.0 mph 71% 0.00 in
12:19 82.8 °F 72.9 °F 29.94 in WNW 2.0 mph 6.0 mph 72% 0.00 in
12:24 82.7 °F 72.8 °F 29.94 in WNW 2.0 mph 5.0 mph 72% 0.00 in
12:29 82.7 °F 72.8 °F 29.94 in WNW 4.0 mph 6.0 mph 72% 0.00 in
12:34 83.1 °F 71.9 °F 29.94 in WNW 1.0 mph 7.0 mph 69% 0.00 in
12:39 82.9 °F 72.1 °F 29.93 in NNE 1.0 mph 5.0 mph 70% 0.00 in
12:44 83.7 °F 72.0 °F 29.94 in SSE 4.0 mph 4.0 mph 68% 0.00 in
12:49 83.9 °F 71.8 °F 29.93 in SSE 3.0 mph 3.0 mph 67% 0.00 in
12:54 83.7 °F 72.0 °F 29.93 in West 1.0 mph 4.0 mph 68% 0.00 in
12:59 83.1 °F 72.3 °F 29.94 in West 3.0 mph 8.0 mph 70% 0.00 in
13:04 82.7 °F 72.3 °F 29.93 in WNW 4.0 mph 4.0 mph 71% 0.00 in
13:09 82.7 °F 72.3 °F 29.93 in NW 4.0 mph 6.0 mph 71% 0.00 in
13:14 82.7 °F 72.3 °F 29.93 in NW 4.0 mph 5.0 mph 71% 0.00 in
13:19 83.1 °F 72.7 °F 29.93 in ENE 5.0 mph 5.0 mph 71% 0.00 in
13:24 83.3 °F 72.5 °F 29.93 in North 2.0 mph 6.0 mph 70% 0.00 in
13:29 83.2 °F 72.0 °F 29.93 in South 7.0 mph 7.0 mph 69% 0.00 in
13:34 82.7 °F 70.6 °F 29.93 in West 4.0 mph 5.0 mph 67% 0.00 in
13:39 82.1 °F 71.8 °F 29.93 in SSW 3.0 mph 4.0 mph 71% 0.00 in
13:44 81.7 °F 71.4 °F 29.93 in SE 2.0 mph 4.0 mph 71% 0.00 in
13:50 80.8 °F 71.3 °F 29.93 in East 6.0 mph 6.0 mph 73% 0.00 in
13:55 80.0 °F 71.4 °F 29.92 in ESE 4.0 mph 5.0 mph 75% 0.00 in
14:00 80.2 °F 72.3 °F 29.92 in East 2.0 mph 3.0 mph 77% 0.00 in
14:05 81.9 °F 73.2 °F 29.92 in NNW 1.0 mph 6.0 mph 75% 0.00 in
14:10 82.5 °F 74.2 °F 29.92 in NE 8.0 mph 12.0 mph 76% 0.00 in
14:15 83.1 °F 73.6 °F 29.91 in NE 3.0 mph 5.0 mph 73% 0.00 in
14:20 84.0 °F 73.2 °F 29.91 in North 3.0 mph 8.0 mph 70% 0.00 in
14:25 84.2 °F 72.5 °F 29.91 in NNE 3.0 mph 6.0 mph 68% 0.00 in
14:30 84.5 °F 73.7 °F 29.91 in NW 3.0 mph 6.0 mph 70% 0.00 in
14:35 85.5 °F 73.3 °F 29.91 in WNW 1.0 mph 5.0 mph 67% 0.00 in
14:40 86.2 °F 73.5 °F 29.90 in North 7.0 mph 7.0 mph 66% 0.00 in
14:45 84.9 °F 71.8 °F 29.90 in Calm   6.0 mph 65% 0.00 in
14:50 84.4 °F 72.2 °F 29.90 in NE 3.0 mph 4.0 mph 67% 0.00 in
14:55 84.2 °F 72.1 °F 29.90 in NNW 1.0 mph 7.0 mph 67% 0.00 in
15:00 84.9 °F 71.8 °F 29.90 in NNE 4.0 mph 7.0 mph 65% 0.00 in
15:05 85.3 °F 71.8 °F 29.90 in NNW 5.0 mph 5.0 mph 64% 0.00 in
15:10 85.7 °F 71.2 °F 29.90 in SE 1.0 mph 5.0 mph 62% 0.00 in
15:15 85.5 °F 71.5 °F 29.90 in SW 2.0 mph 5.0 mph 63% 0.00 in
15:20 84.7 °F 72.1 °F 29.90 in SW 10.0 mph 11.0 mph 66% 0.00 in
15:25 82.6 °F 73.5 °F 29.90 in West 4.0 mph 10.0 mph 74% 0.00 in
15:30 81.6 °F 73.7 °F 29.90 in South 9.0 mph 9.0 mph 77% 0.00 in
15:35 80.9 °F 74.2 °F 29.90 in SE 7.0 mph 10.0 mph 80% 0.00 in
15:40 79.8 °F 74.2 °F 29.90 in SE 4.0 mph 7.0 mph 83% 0.00 in
15:45 78.6 °F 74.1 °F 29.90 in SE 5.0 mph 9.0 mph 86% 0.00 in
15:50 78.2 °F 74.4 °F 29.89 in SE 3.0 mph 8.0 mph 88% 0.00 in
15:55 78.1 °F 74.3 °F 29.89 in ESE 5.0 mph 7.0 mph 88% 0.00 in
16:00 78.4 °F 74.6 °F 29.88 in ENE 3.0 mph 4.0 mph 88% 0.00 in
16:05 78.6 °F 74.4 °F 29.88 in ESE 4.0 mph 5.0 mph 87% 0.00 in
16:10 78.7 °F 74.2 °F 29.88 in SE 3.0 mph 4.0 mph 86% 0.00 in
16:15 79.0 °F 74.1 °F 29.88 in ENE 2.0 mph 4.0 mph 85% 0.00 in
16:20 79.3 °F 73.7 °F 29.88 in East 3.0 mph 4.0 mph 83% 0.00 in
16:25 79.7 °F 73.4 °F 29.88 in East 2.0 mph 4.0 mph 81% 0.00 in
16:30 80.5 °F 73.8 °F 29.88 in East 3.0 mph 3.0 mph 80% 0.00 in
16:35 81.2 °F 72.5 °F 29.88 in East 4.0 mph 5.0 mph 75% 0.00 in
16:40 82.3 °F 74.0 °F 29.87 in ESE 1.0 mph 5.0 mph 76% 0.00 in
16:45 83.7 °F 71.6 °F 29.87 in East 4.0 mph 5.0 mph 67% 0.00 in
16:50 84.4 °F 70.0 °F 29.87 in East 1.0 mph 4.0 mph 62% 0.00 in
16:56 85.1 °F 70.2 °F 29.87 in ENE 2.0 mph 5.0 mph 61% 0.00 in
17:01 85.8 °F 71.8 °F 29.87 in ENE 4.0 mph 4.0 mph 63% 0.00 in
17:06 86.7 °F 71.7 °F 29.87 in NNE 3.0 mph 3.0 mph 61% 0.00 in
17:11 87.2 °F 71.1 °F 29.87 in ESE 2.0 mph 3.0 mph 59% 0.00 in
17:16 87.3 °F 70.2 °F 29.87 in ENE 3.0 mph 5.0 mph 57% 0.00 in
17:21 87.4 °F 70.8 °F 29.87 in SE 2.0 mph 6.0 mph 58% 0.00 in
17:26 87.6 °F 72.0 °F 29.87 in ESE 5.0 mph 5.0 mph 60% 0.00 in
17:31 88.0 °F 72.4 °F 29.86 in SSW 4.0 mph 7.0 mph 60% 0.00 in
17:36 88.3 °F 70.6 °F 29.86 in SSE 5.0 mph 7.0 mph 56% 0.00 in
17:41 88.0 °F 70.9 °F 29.86 in SSW 3.0 mph 6.0 mph 57% 0.00 in
17:46 88.2 °F 72.1 °F 29.86 in SW 2.0 mph 7.0 mph 59% 0.00 in
17:51 88.4 °F 71.8 °F 29.85 in SSE 3.0 mph 6.0 mph 58% 0.00 in
17:56 88.0 °F 72.4 °F 29.85 in SE 3.0 mph 6.0 mph 60% 0.00 in
18:01 87.7 °F 72.1 °F 29.85 in ESE 2.0 mph 8.0 mph 60% 0.00 in
18:06 87.7 °F 72.1 °F 29.85 in SSE 4.0 mph 5.0 mph 60% 0.00 in
18:11 88.0 °F 72.4 °F 29.85 in SE 3.0 mph 6.0 mph 60% 0.00 in
18:16 88.0 °F 72.4 °F 29.85 in SE 6.0 mph 6.0 mph 60% 0.00 in
18:21 86.9 °F 72.8 °F 29.85 in SSE 4.0 mph 6.0 mph 63% 0.00 in
18:26 86.1 °F 72.5 °F 29.85 in SSE 8.0 mph 8.0 mph 64% 0.00 in
18:32 85.4 °F 72.3 °F 29.85 in SSE 4.0 mph 6.0 mph 65% 0.00 in
18:37 85.0 °F 72.4 °F 29.85 in SSE 4.0 mph 6.0 mph 66% 0.00 in
18:42 84.8 °F 73.1 °F 29.85 in South 1.0 mph 5.0 mph 68% 0.00 in
18:47 84.8 °F 73.1 °F 29.85 in South 1.0 mph 3.0 mph 68% 0.00 in
18:52 84.7 °F 73.0 °F 29.85 in SSE 2.0 mph 2.0 mph 68% 0.00 in
18:57 84.4 °F 73.1 °F 29.85 in SW 3.0 mph 3.0 mph 69% 0.00 in
19:02 84.3 °F 73.9 °F 29.85 in West 2.0 mph 3.0 mph 71% 0.00 in
19:07 83.8 °F 73.4 °F 29.85 in WNW 2.0 mph 4.0 mph 71% 0.00 in
19:12 83.5 °F 72.7 °F 29.85 in NW 2.0 mph 2.0 mph 70% 0.00 in
19:17 83.4 °F 73.0 °F 29.85 in NW 4.0 mph 4.0 mph 71% 0.00 in
19:22 83.0 °F 73.1 °F 29.85 in West 2.0 mph 3.0 mph 72% 0.00 in
19:27 82.8 °F 72.4 °F 29.85 in WNW 1.0 mph 2.0 mph 71% 0.00 in
19:32 82.8 °F 72.9 °F 29.85 in Calm   1.0 mph 72% 0.00 in
19:37 82.8 °F 72.4 °F 29.85 in WSW 1.0 mph 1.0 mph 71% 0.00 in
19:42 82.8 °F 72.4 °F 29.85 in West 1.0 mph 1.0 mph 71% 0.00 in
19:47 82.7 °F 71.9 °F 29.85 in NW 1.0 mph 2.0 mph 70% 0.00 in
19:52 82.6 °F 72.7 °F 29.85 in North 3.0 mph 4.0 mph 72% 0.00 in
19:57 82.3 °F 72.4 °F 29.86 in Calm   1.0 mph 72% 0.00 in
20:02 82.1 °F 72.6 °F 29.86 in Calm     73% 0.00 in
20:07 81.5 °F 72.0 °F 29.86 in WNW 5.0 mph 10.0 mph 73% 0.00 in
20:12 80.8 °F 70.9 °F 29.86 in North 2.0 mph 4.0 mph 72% 0.00 in
20:17 80.5 °F 71.5 °F 29.86 in NNW 4.0 mph 4.0 mph 74% 0.00 in
20:22 80.1 °F 71.5 °F 29.86 in North 2.0 mph 4.0 mph 75% 0.00 in
20:27 79.9 °F 71.7 °F 29.86 in Calm   1.0 mph 76% 0.00 in
20:32 79.7 °F 71.9 °F 29.87 in NNW 2.0 mph 2.0 mph 77% 0.00 in
20:37 79.4 °F 71.9 °F 29.87 in NW 3.0 mph 8.0 mph 78% 0.00 in
20:42 79.0 °F 72.3 °F 29.87 in SW 3.0 mph 3.0 mph 80% 0.00 in
20:47 78.8 °F 72.1 °F 29.87 in WNW 3.0 mph 3.0 mph 80% 0.00 in
20:52 78.7 °F 72.4 °F 29.88 in WSW 2.0 mph 4.0 mph 81% 0.00 in
20:57 78.7 °F 72.8 °F 29.89 in SSW 2.0 mph 4.0 mph 82% 0.00 in
21:02 78.6 °F 73.0 °F 29.89 in West 4.0 mph 8.0 mph 83% 0.00 in
21:07 78.5 °F 72.9 °F 29.89 in WNW 5.0 mph 8.0 mph 83% 0.00 in
21:12 78.3 °F 72.4 °F 29.88 in SW 5.0 mph 8.0 mph 82% 0.00 in
21:18 78.1 °F 72.2 °F 29.88 in West 9.0 mph 9.0 mph 82% 0.00 in
21:23 77.9 °F 72.0 °F 29.88 in WNW 3.0 mph 9.0 mph 82% 0.00 in
21:28 77.6 °F 72.0 °F 29.88 in WNW 6.0 mph 7.0 mph 83% 0.00 in
21:33 77.3 °F 72.1 °F 29.88 in West 4.0 mph 9.0 mph 84% 0.00 in
21:38 77.0 °F 71.8 °F 29.88 in WNW 3.0 mph 4.0 mph 84% 0.00 in
21:43 76.8 °F 71.9 °F 29.89 in WNW 1.0 mph 3.0 mph 85% 0.00 in
21:48 76.6 °F 71.8 °F 29.89 in NW 2.0 mph 3.0 mph 85% 0.00 in
21:53 76.3 °F 71.5 °F 29.88 in NW 1.0 mph 3.0 mph 85% 0.00 in
21:58 76.1 °F 71.3 °F 29.88 in West 1.0 mph 2.0 mph 85% 0.00 in
22:03 75.9 °F 71.1 °F 29.89 in WNW 2.0 mph 2.0 mph 85% 0.00 in
22:08 75.8 °F 71.3 °F 29.89 in SSW 1.0 mph 2.0 mph 86% 0.00 in
22:13 75.7 °F 71.2 °F 29.89 in SW 1.0 mph 1.0 mph 86% 0.00 in
22:18 75.5 °F 71.4 °F 29.89 in Calm   1.0 mph 87% 0.00 in
22:23 75.4 °F 70.9 °F 29.89 in Calm     86% 0.00 in
22:28 75.3 °F 70.8 °F 29.89 in Calm   1.0 mph 86% 0.00 in
22:33 75.1 °F 70.6 °F 29.89 in Calm     86% 0.00 in
22:38 75.0 °F 70.5 °F 29.89 in SW 1.0 mph 1.0 mph 86% 0.00 in
22:43 74.9 °F 70.1 °F 29.89 in Calm   1.0 mph 85% 0.00 in
22:48 74.9 °F 70.4 °F 29.89 in Calm   1.0 mph 86% 0.00 in
22:53 74.7 °F 70.2 °F 29.90 in North 1.0 mph 1.0 mph 86% 0.00 in
22:58 74.8 °F 70.3 °F 29.90 in NNE 2.0 mph 2.0 mph 86% 0.00 in
23:03 74.7 °F 69.9 °F 29.90 in Calm   2.0 mph 85% 0.00 in
23:08 74.6 °F 69.8 °F 29.90 in NNE 1.0 mph 1.0 mph 85% 0.00 in
23:13 74.5 °F 70.0 °F 29.90 in NNE 1.0 mph 1.0 mph 86% 0.00 in
23:18 74.4 °F 69.9 °F 29.90 in Calm   1.0 mph 86% 0.00 in
23:23 74.3 °F 70.2 °F 29.90 in Calm   1.0 mph 87% 0.00 in
23:28 74.2 °F 70.1 °F 29.90 in Calm     87% 0.00 in
23:33 74.1 °F 70.3 °F 29.90 in Calm   1.0 mph 88% 0.00 in
23:38 74.0 °F 70.2 °F 29.90 in SE 2.0 mph 2.0 mph 88% 0.00 in
23:43 73.8 °F 70.4 °F 29.90 in Calm   1.0 mph 89% 0.00 in
23:48 73.6 °F 70.2 °F 29.90 in Calm     89% 0.00 in
23:53 73.4 °F 70.3 °F 29.90 in Calm     90% 0.00 in
23:58 73.3 °F 70.2 °F 29.90 in Calm     90% 0.00 in
Compliments of Weather Underground